createdAt,value
2019-02-19T00:00:30.143Z,100839.81
2019-02-19T00:02:58.412Z,100835.29
2019-02-19T00:05:26.702Z,100830.16
2019-02-19T00:07:54.977Z,100826.45
2019-02-19T00:10:23.240Z,100828.33
2019-02-19T00:12:51.512Z,100825.33
2019-02-19T00:15:19.773Z,100825.62
2019-02-19T00:17:48.082Z,100821.34
2019-02-19T00:20:16.344Z,100822.28
2019-02-19T00:22:44.612Z,100814.55
2019-02-19T00:25:12.898Z,100817.19
2019-02-19T00:27:41.167Z,100810.34
2019-02-19T00:30:09.502Z,100811.11
2019-02-19T00:32:37.777Z,100808.25
2019-02-19T00:35:06.630Z,100800.55
2019-02-19T00:37:34.878Z,100801.77
2019-02-19T00:40:03.165Z,100788.28
2019-02-19T00:42:31.446Z,100783.86
2019-02-19T00:44:59.705Z,100780.14
2019-02-19T00:47:28.001Z,100781.30
2019-02-19T00:49:56.249Z,100778.98
2019-02-19T00:52:24.543Z,100783.67
2019-02-19T00:54:52.873Z,100785.95
2019-02-19T00:57:21.137Z,100780.23
2019-02-19T00:59:49.388Z,100783.18
2019-02-19T01:02:17.686Z,100786.90
2019-02-19T01:04:45.965Z,100780.77
2019-02-19T01:07:14.255Z,100783.36
2019-02-19T01:09:42.536Z,100778.09
2019-02-19T01:12:10.787Z,100779.15
2019-02-19T01:14:39.105Z,100782.99
2019-02-19T01:17:07.390Z,100779.78
2019-02-19T01:19:35.683Z,100780.33
2019-02-19T01:22:03.973Z,100780.47
2019-02-19T01:24:32.235Z,100771.96
2019-02-19T01:27:00.544Z,100778.39
2019-02-19T01:29:28.803Z,100777.55
2019-02-19T01:31:57.083Z,100769.18
2019-02-19T01:34:25.364Z,100763.69
2019-02-19T01:36:53.634Z,100764.33
2019-02-19T01:39:21.932Z,100765.13
2019-02-19T01:41:50.210Z,100763.64
2019-02-19T01:44:18.480Z,100757.66
2019-02-19T01:46:47.702Z,100756.55
2019-02-19T01:49:15.980Z,100756.81
2019-02-19T01:51:44.250Z,100756.50
2019-02-19T01:54:12.548Z,100758.70
2019-02-19T01:56:40.819Z,100756.81
2019-02-19T01:59:09.090Z,100752.31
2019-02-19T02:01:37.394Z,100750.73
2019-02-19T02:04:05.661Z,100746.67
2019-02-19T02:06:33.939Z,100742.25
2019-02-19T02:09:02.211Z,100742.74
2019-02-19T02:11:30.477Z,100740.77
2019-02-19T02:13:58.751Z,100740.41
2019-02-19T02:16:27.053Z,100735.82
2019-02-19T02:18:55.346Z,100727.28
2019-02-19T02:21:23.620Z,100737.20
2019-02-19T02:23:51.916Z,100734.34
2019-02-19T02:26:20.183Z,100736.53
2019-02-19T02:28:48.464Z,100735.37
2019-02-19T02:31:16.746Z,100733.41
2019-02-19T02:33:45.012Z,100735.11
2019-02-19T02:36:13.296Z,100728.84
2019-02-19T02:38:41.587Z,100728.94
2019-02-19T02:41:09.864Z,100726.56
2019-02-19T02:43:38.136Z,100724.64
2019-02-19T02:46:06.449Z,100730.28
2019-02-19T02:48:34.737Z,100726.83
2019-02-19T02:51:03.082Z,100722.55
2019-02-19T02:53:31.361Z,100729.55
2019-02-19T02:55:59.654Z,100729.55
2019-02-19T02:58:27.938Z,100740.10
2019-02-19T03:00:56.224Z,100738.22
2019-02-19T03:03:24.528Z,100733.95
2019-02-19T03:06:01.760Z,100730.37
2019-02-19T03:08:30.031Z,100730.72
2019-02-19T03:10:58.287Z,100729.72
2019-02-19T03:13:26.602Z,100723.36
2019-02-19T03:16:02.154Z,100725.16
2019-02-19T03:18:24.853Z,100723.86
2019-02-19T03:20:53.163Z,100723.56
2019-02-19T03:23:21.480Z,100732.49
2019-02-19T03:25:49.765Z,100734.64
2019-02-19T03:28:18.047Z,100736.78
2019-02-19T03:30:46.346Z,100733.97
2019-02-19T03:33:14.626Z,100738.13
2019-02-19T03:35:42.897Z,100734.42
2019-02-19T03:38:11.190Z,100727.88
2019-02-19T03:40:39.491Z,100736.70
2019-02-19T03:43:07.792Z,100739.30
2019-02-19T03:45:36.092Z,100745.28
2019-02-19T03:48:04.356Z,100736.56
2019-02-19T03:50:32.637Z,100741.55
2019-02-19T03:53:00.910Z,100734.95
2019-02-19T03:55:29.182Z,100736.30
2019-02-19T03:57:57.535Z,100733.59
2019-02-19T04:00:25.892Z,100740.45
2019-02-19T04:02:54.152Z,100748.69
2019-02-19T04:05:22.438Z,100732.95
2019-02-19T04:07:50.701Z,100734.99
2019-02-19T04:10:18.971Z,100737.14
2019-02-19T04:12:47.247Z,100747.81
2019-02-19T04:15:15.507Z,100751.08
2019-02-19T04:17:43.783Z,100752.40
2019-02-19T04:20:12.046Z,100750.51
2019-02-19T04:22:40.314Z,100753.52
2019-02-19T04:25:08.590Z,100749.06
2019-02-19T04:27:36.898Z,100748.75
2019-02-19T04:30:06.997Z,100754.70
2019-02-19T04:32:35.259Z,100755.39
2019-02-19T04:35:04.018Z,100752.67
2019-02-19T04:37:32.292Z,100756.58
2019-02-19T04:40:00.668Z,100763.30
2019-02-19T04:42:28.920Z,100764.03
2019-02-19T04:44:57.201Z,100763.82
2019-02-19T04:47:25.548Z,100763.42
2019-02-19T04:49:53.817Z,100755.34
2019-02-19T04:52:22.081Z,100754.95
2019-02-19T04:54:50.346Z,100763.82
2019-02-19T04:57:18.637Z,100764.03
2019-02-19T04:59:46.944Z,100766.17
2019-02-19T05:02:15.279Z,100767.36
2019-02-19T05:04:43.561Z,100767.91
2019-02-19T05:07:11.869Z,100765.30
2019-02-19T05:09:40.180Z,100762.59
2019-02-19T05:12:08.435Z,100767.05
2019-02-19T05:14:36.708Z,100760.73
2019-02-19T05:17:05.050Z,100764.19
2019-02-19T05:19:33.314Z,100759.16
2019-02-19T05:22:01.590Z,100763.56
2019-02-19T05:24:29.862Z,100764.12
2019-02-19T05:26:58.147Z,100764.86
2019-02-19T05:29:26.417Z,100771.36
2019-02-19T05:31:54.706Z,100768.02
2019-02-19T05:34:22.967Z,100767.62
2019-02-19T05:36:51.257Z,100764.06
2019-02-19T05:39:19.525Z,100763.44
2019-02-19T05:41:47.812Z,100769.59
2019-02-19T05:44:16.091Z,100770.28
2019-02-19T05:46:49.875Z,100775.82
2019-02-19T05:49:14.338Z,100777.09
2019-02-19T05:51:42.611Z,100774.20
2019-02-19T05:54:10.884Z,100779.28
2019-02-19T05:56:39.140Z,100776.69
2019-02-19T05:59:07.428Z,100770.49
2019-02-19T06:01:35.715Z,100777.98
2019-02-19T06:04:03.970Z,100774.39
2019-02-19T06:06:32.251Z,100777.98
2019-02-19T06:09:00.506Z,100776.69
2019-02-19T06:11:28.808Z,100783.92
2019-02-19T06:13:57.082Z,100781.03
2019-02-19T06:16:25.372Z,100780.69
2019-02-19T06:18:53.641Z,100787.97
2019-02-19T06:21:21.912Z,100786.57
2019-02-19T06:23:50.180Z,100785.46
2019-02-19T06:26:18.457Z,100786.07
2019-02-19T06:28:46.740Z,100781.56
2019-02-19T06:31:15.000Z,100785.13
2019-02-19T06:33:44.090Z,100788.11
2019-02-19T06:36:12.362Z,100799.00
2019-02-19T06:38:40.628Z,100796.70
2019-02-19T06:41:08.909Z,100801.89
2019-02-19T06:43:37.177Z,100812.22
2019-02-19T06:46:05.450Z,100807.03
2019-02-19T06:48:33.734Z,100808.28
2019-02-19T06:51:02.008Z,100820.67
2019-02-19T06:53:30.280Z,100813.08
2019-02-19T06:55:58.548Z,100813.08
2019-02-19T06:58:26.827Z,100832.25
2019-02-19T07:00:55.094Z,100828.41
2019-02-19T07:03:25.018Z,100830.61
2019-02-19T07:05:53.298Z,100835.30
2019-02-19T07:08:21.558Z,100836.55
2019-02-19T07:10:49.830Z,100836.15
2019-02-19T07:13:18.086Z,100849.48
2019-02-19T07:15:46.349Z,100839.09
2019-02-19T07:18:15.427Z,100836.95
2019-02-19T07:20:43.683Z,100835.64
2019-02-19T07:23:11.953Z,100833.95
2019-02-19T07:25:40.228Z,100835.30
2019-02-19T07:28:08.487Z,100839.59
2019-02-19T07:30:36.766Z,100849.98
2019-02-19T07:33:05.042Z,100844.34
2019-02-19T07:35:33.333Z,100851.73
2019-02-19T07:38:01.600Z,100847.39
2019-02-19T07:40:29.857Z,100842.98
2019-02-19T07:42:58.121Z,100848.69
2019-02-19T07:45:26.384Z,100852.92
2019-02-19T07:47:54.655Z,100848.03
2019-02-19T07:50:22.930Z,100853.27
2019-02-19T07:52:51.198Z,100847.63
2019-02-19T07:55:19.461Z,100852.83
2019-02-19T07:57:47.742Z,100853.67
2019-02-19T08:00:16.023Z,100848.98
2019-02-19T08:02:44.288Z,100853.52
2019-02-19T08:05:12.562Z,100849.17
2019-02-19T08:07:40.843Z,100846.17
2019-02-19T08:10:10.854Z,100850.81
2019-02-19T08:12:39.118Z,100851.21
2019-02-19T08:15:11.464Z,100854.13
2019-02-19T08:17:39.729Z,100856.16
2019-02-19T08:20:15.407Z,100856.66
2019-02-19T08:22:39.297Z,100863.80
2019-02-19T08:25:07.566Z,100858.55
2019-02-19T08:27:35.851Z,100859.11
2019-02-19T08:30:05.789Z,100855.89
2019-02-19T08:32:34.049Z,100855.55
2019-02-19T08:35:02.319Z,100848.45
2019-02-19T08:37:30.650Z,100855.59
2019-02-19T08:39:58.925Z,100852.09
2019-02-19T08:42:27.200Z,100852.73
2019-02-19T08:44:55.456Z,100865.27
2019-02-19T08:47:23.712Z,100863.75
2019-02-19T08:49:51.989Z,100879.95
2019-02-19T08:52:20.254Z,100883.59
2019-02-19T08:54:48.526Z,100886.05
2019-02-19T08:57:16.778Z,100881.50
2019-02-19T08:59:45.291Z,100883.00
2019-02-19T09:02:13.566Z,100881.84
2019-02-19T09:04:41.816Z,100880.99
2019-02-19T09:07:10.079Z,100881.05
2019-02-19T09:09:38.359Z,100880.99
2019-02-19T09:12:06.650Z,100880.91
2019-02-19T09:14:34.910Z,100886.64
2019-02-19T09:17:03.179Z,100884.75
2019-02-19T09:19:31.461Z,100886.45
2019-02-19T09:21:59.805Z,100888.20
2019-02-19T09:24:28.091Z,100887.19
2019-02-19T09:26:56.379Z,100886.34
2019-02-19T09:29:24.629Z,100879.23
2019-02-19T09:31:52.890Z,100891.03
2019-02-19T09:34:22.707Z,100895.05
2019-02-19T09:36:50.983Z,100888.13
2019-02-19T09:39:19.251Z,100882.59
2019-02-19T09:41:47.507Z,100883.61
2019-02-19T09:44:15.822Z,100883.55
2019-02-19T09:46:44.102Z,100885.09
2019-02-19T09:49:12.351Z,100885.09
2019-02-19T09:51:40.602Z,100877.80
2019-02-19T09:54:08.866Z,100880.58
2019-02-19T09:56:37.116Z,100884.98
2019-02-19T09:59:05.374Z,100891.95
2019-02-19T10:01:33.645Z,100896.75
2019-02-19T10:04:01.910Z,100884.87
2019-02-19T10:06:30.171Z,100872.55
2019-02-19T10:08:58.425Z,100881.53
2019-02-19T10:11:26.754Z,100883.70
2019-02-19T10:13:55.026Z,100885.55
2019-02-19T10:16:23.282Z,100879.28
2019-02-19T10:18:51.583Z,100880.92
2019-02-19T10:21:19.821Z,100880.75
2019-02-19T10:23:48.099Z,100876.52
2019-02-19T10:26:16.359Z,100873.40
2019-02-19T10:28:44.624Z,100871.46
2019-02-19T10:31:12.877Z,100862.98
2019-02-19T10:33:41.936Z,100867.07
2019-02-19T10:36:10.200Z,100862.95
2019-02-19T10:38:38.458Z,100857.99
2019-02-19T10:41:06.716Z,100867.65
2019-02-19T10:43:34.982Z,100866.15
2019-02-19T10:46:03.242Z,100863.94
2019-02-19T10:48:31.506Z,100863.94
2019-02-19T10:50:59.787Z,100853.45
2019-02-19T10:53:28.060Z,100847.42
2019-02-19T10:55:56.317Z,100841.01
2019-02-19T10:58:24.583Z,100847.45
2019-02-19T11:00:52.851Z,100844.55
2019-02-19T11:03:21.122Z,100846.28
2019-02-19T11:05:49.378Z,100857.84
2019-02-19T11:08:17.649Z,100846.97
2019-02-19T11:10:45.915Z,100850.84
2019-02-19T11:13:14.176Z,100860.78
2019-02-19T11:15:42.451Z,100865.70
2019-02-19T11:18:10.697Z,100868.90
2019-02-19T11:20:38.971Z,100860.30
2019-02-19T11:23:07.236Z,100861.63
2019-02-19T11:25:35.509Z,100871.44
2019-02-19T11:28:03.777Z,100865.05
2019-02-19T11:30:32.045Z,100880.10
2019-02-19T11:33:00.295Z,100870.80
2019-02-19T11:35:28.569Z,100873.53
2019-02-19T11:37:56.842Z,100876.08
2019-02-19T11:40:25.103Z,100869.80
2019-02-19T11:42:53.364Z,100871.95
2019-02-19T11:45:23.285Z,100871.23
2019-02-19T11:47:51.470Z,100857.23
2019-02-19T11:50:19.741Z,100863.87
2019-02-19T11:52:48.025Z,100861.86
2019-02-19T11:55:20.575Z,100856.67
2019-02-19T11:57:48.833Z,100857.33
2019-02-19T12:00:18.908Z,100854.57
2019-02-19T12:02:49.191Z,100856.53
2019-02-19T12:05:17.161Z,100872.33
2019-02-19T12:07:45.443Z,100871.94
2019-02-19T12:10:13.703Z,100865.48
2019-02-19T12:12:41.959Z,100880.95
2019-02-19T12:15:13.580Z,100869.47
2019-02-19T12:17:41.846Z,100866.55
2019-02-19T12:20:13.956Z,100871.95
2019-02-19T12:22:42.279Z,100866.94
2019-02-19T12:25:11.087Z,100870.38
2019-02-19T12:27:39.347Z,100870.38
2019-02-19T12:30:16.660Z,100862.70
2019-02-19T12:32:44.937Z,100868.17
2019-02-19T12:35:13.204Z,100869.27
2019-02-19T12:37:41.470Z,100871.70
2019-02-19T12:40:11.576Z,100874.55
2019-02-19T12:42:39.842Z,100879.75
2019-02-19T12:45:10.480Z,100878.64
2019-02-19T12:47:38.785Z,100882.42
2019-02-19T12:50:12.259Z,100882.15
2019-02-19T12:52:40.527Z,100884.17
2019-02-19T12:55:09.619Z,100880.06
2019-02-19T12:57:37.891Z,100882.36
2019-02-19T13:00:09.561Z,100887.17
2019-02-19T13:02:37.826Z,100877.67
2019-02-19T13:05:08.318Z,100878.58
2019-02-19T13:07:36.988Z,100870.70
2019-02-19T13:10:07.764Z,100869.92
2019-02-19T13:12:36.035Z,100881.27
2019-02-19T13:15:06.245Z,100880.42
2019-02-19T13:17:34.510Z,100887.56
2019-02-19T13:20:02.935Z,100877.67
2019-02-19T13:22:31.202Z,100883.78
2019-02-19T13:24:59.451Z,100880.81
2019-02-19T13:27:27.801Z,100874.06
2019-02-19T13:29:56.058Z,100881.36
2019-02-19T13:32:24.342Z,100892.11
2019-02-19T13:34:52.609Z,100885.45
2019-02-19T13:37:20.878Z,100896.52
2019-02-19T13:39:49.158Z,100895.67
2019-02-19T13:42:17.423Z,100897.77
2019-02-19T13:44:45.692Z,100902.03
2019-02-19T13:47:13.954Z,100902.94
2019-02-19T13:49:42.217Z,100904.45
2019-02-19T13:52:12.153Z,100897.45
2019-02-19T13:54:41.080Z,100903.90
2019-02-19T13:57:09.356Z,100915.26
2019-02-19T13:59:37.609Z,100919.05
2019-02-19T14:02:06.363Z,100905.66
2019-02-19T14:04:34.638Z,100903.95
2019-02-19T14:07:02.910Z,100904.58
2019-02-19T14:09:31.184Z,100897.34
2019-02-19T14:11:59.454Z,100901.98
2019-02-19T14:14:41.422Z,100899.72
2019-02-19T14:17:09.842Z,100909.61
2019-02-19T14:19:39.763Z,100919.96
2019-02-19T14:22:25.635Z,100917.20
2019-02-19T14:24:55.535Z,100917.53
2019-02-19T14:27:27.900Z,100922.44
2019-02-19T14:30:03.608Z,100924.48
2019-02-19T14:32:49.613Z,100927.03
2019-02-19T14:35:35.457Z,100926.58
2019-02-19T14:38:05.362Z,100939.98
2019-02-19T14:40:50.929Z,100931.70
2019-02-19T14:43:32.265Z,100931.75
2019-02-19T14:46:05.079Z,100930.74
2019-02-19T14:48:35.013Z,100938.67
2019-02-19T14:51:04.915Z,100927.70
2019-02-19T14:53:40.795Z,100928.23
2019-02-19T14:56:25.785Z,100932.67
2019-02-19T14:59:07.475Z,100926.52
2019-02-19T15:01:43.056Z,100936.73
2019-02-19T15:04:12.999Z,100933.58
2019-02-19T15:06:48.984Z,100930.88
2019-02-19T15:09:21.655Z,100930.83
2019-02-19T15:11:51.578Z,100930.03
2019-02-19T15:14:24.371Z,100933.98
2019-02-19T15:16:56.951Z,100932.97
2019-02-19T15:19:29.248Z,100933.92
2019-02-19T15:22:07.687Z,100933.48
2019-02-19T15:24:55.136Z,100928.78
2019-02-19T15:27:27.441Z,100937.77
2019-02-19T15:30:05.806Z,100929.34
2019-02-19T15:32:50.791Z,100929.84
2019-02-19T15:35:36.928Z,100945.87
2019-02-19T15:38:22.959Z,100950.88
2019-02-19T15:41:01.274Z,100945.64
2019-02-19T15:43:31.171Z,100951.94
2019-02-19T15:46:03.787Z,100947.44
2019-02-19T15:48:33.862Z,100947.94
2019-02-19T15:51:06.469Z,100943.23
2019-02-19T15:53:48.212Z,100945.04
2019-02-19T15:56:18.119Z,100959.08
2019-02-19T15:58:50.808Z,100959.08
2019-02-19T16:01:23.109Z,100962.08
2019-02-19T16:03:52.998Z,100955.23
2019-02-19T16:06:25.879Z,100962.52
2019-02-19T16:08:55.782Z,100963.62
2019-02-19T16:11:31.388Z,100970.22
2019-02-19T16:14:01.281Z,100969.31
2019-02-19T16:16:47.230Z,100973.22
2019-02-19T16:19:28.882Z,100976.66
2019-02-19T16:22:07.865Z,100987.05
2019-02-19T16:24:53.778Z,100976.22
2019-02-19T16:27:29.717Z,100974.41
2019-02-19T16:30:17.708Z,100991.62
2019-02-19T16:33:03.767Z,100985.75
2019-02-19T16:35:33.663Z,101000.00
2019-02-19T16:38:03.581Z,100990.85
2019-02-19T16:40:36.117Z,100998.56
2019-02-19T16:43:21.692Z,100991.47
2019-02-19T16:45:54.515Z,100996.66
2019-02-19T16:48:24.434Z,100981.41
2019-02-19T16:50:54.333Z,100993.00
2019-02-19T16:53:24.248Z,101000.71
2019-02-19T16:56:10.075Z,100999.87
2019-02-19T16:58:45.999Z,101012.48
2019-02-19T17:01:21.625Z,101002.20
2019-02-19T17:03:54.476Z,101006.06
2019-02-19T17:06:24.469Z,101008.81
2019-02-19T17:09:10.334Z,101008.51
2019-02-19T17:11:49.297Z,101013.70
2019-02-19T17:14:19.214Z,101014.23
2019-02-19T17:16:51.757Z,101016.75
2019-02-19T17:19:30.594Z,101030.23
2019-02-19T17:22:03.212Z,101019.75
2019-02-19T17:24:42.063Z,101027.90
2019-02-19T17:27:20.779Z,101033.89
2019-02-19T17:29:50.955Z,101034.20
2019-02-19T17:32:36.805Z,101037.14
2019-02-19T17:35:08.152Z,101036.75
2019-02-19T17:37:40.735Z,101037.55
2019-02-19T17:40:10.702Z,101045.39
2019-02-19T17:42:40.612Z,101046.49
2019-02-19T17:45:13.246Z,101045.69
2019-02-19T17:47:51.886Z,101039.30
2019-02-19T17:50:38.774Z,101045.30
2019-02-19T17:53:24.780Z,101045.74
2019-02-19T17:55:54.691Z,101049.19
2019-02-19T17:58:33.277Z,101051.34
2019-02-19T18:01:20.956Z,101050.84
2019-02-19T18:03:50.871Z,101061.23
2019-02-19T18:06:23.465Z,101053.89
2019-02-19T18:09:10.914Z,101064.45
2019-02-19T18:11:52.764Z,101065.75
2019-02-19T18:14:28.573Z,101074.30
2019-02-19T18:17:13.541Z,101074.36
2019-02-19T18:19:41.806Z,101073.39
2019-02-19T18:22:10.061Z,101074.28
2019-02-19T18:24:38.350Z,101078.63
2019-02-19T18:27:06.613Z,101078.58
2019-02-19T18:29:34.881Z,101070.05
2019-02-19T18:32:03.150Z,101075.08
2019-02-19T18:34:31.424Z,101063.44
2019-02-19T18:36:59.673Z,101061.29
2019-02-19T18:39:27.952Z,101077.50
2019-02-19T18:41:56.214Z,101083.83
2019-02-19T18:44:24.467Z,101076.94
2019-02-19T18:46:52.743Z,101070.34
2019-02-19T18:49:21.002Z,101080.43
2019-02-19T18:51:49.264Z,101086.93
2019-02-19T18:54:17.543Z,101086.44
2019-02-19T18:56:45.816Z,101075.38
2019-02-19T18:59:14.099Z,101087.02
2019-02-19T19:01:42.402Z,101082.73
2019-02-19T19:04:10.673Z,101088.42
2019-02-19T19:06:38.950Z,101087.58
2019-02-19T19:09:07.294Z,101088.83
2019-02-19T19:11:35.572Z,101091.47
2019-02-19T19:14:03.836Z,101090.27
2019-02-19T19:16:32.112Z,101099.67
2019-02-19T19:19:00.382Z,101094.37
2019-02-19T19:21:28.638Z,101106.56
2019-02-19T19:23:57.010Z,101096.27
2019-02-19T19:26:25.288Z,101106.16
2019-02-19T19:28:53.568Z,101102.63
2019-02-19T19:31:21.841Z,101113.06
2019-02-19T19:33:50.106Z,101107.41
2019-02-19T19:36:18.364Z,101112.36
2019-02-19T19:38:46.643Z,101117.16
2019-02-19T19:41:14.904Z,101117.86
2019-02-19T19:43:43.528Z,101117.86
2019-02-19T19:46:11.782Z,101117.41
2019-02-19T19:48:40.074Z,101124.17
2019-02-19T19:51:16.915Z,101124.45
2019-02-19T19:53:38.861Z,101129.16
2019-02-19T19:56:07.136Z,101134.26
2019-02-19T19:58:35.403Z,101137.66
2019-02-19T20:01:03.685Z,101138.30
2019-02-19T20:03:31.954Z,101135.95
2019-02-19T20:06:00.233Z,101132.70
2019-02-19T20:08:28.498Z,101143.89
2019-02-19T20:10:56.767Z,101136.09
2019-02-19T20:13:25.041Z,101136.09
2019-02-19T20:15:53.308Z,101137.59
2019-02-19T20:18:21.598Z,101137.22
2019-02-19T20:20:49.941Z,101145.73
2019-02-19T20:23:18.233Z,101146.09
2019-02-19T20:25:46.526Z,101153.94
2019-02-19T20:28:14.794Z,101155.09
2019-02-19T20:30:43.045Z,101151.11
2019-02-19T20:33:11.313Z,101149.14
2019-02-19T20:35:39.585Z,101150.44
2019-02-19T20:38:07.849Z,101144.89
2019-02-19T20:40:36.102Z,101146.41
2019-02-19T20:43:04.375Z,101140.41
2019-02-19T20:45:32.652Z,101151.61
2019-02-19T20:48:00.993Z,101148.91
2019-02-19T20:50:29.256Z,101148.55
2019-02-19T20:52:57.511Z,101148.55
2019-02-19T20:55:25.825Z,101153.75
2019-02-19T20:57:54.109Z,101149.36
2019-02-19T21:00:22.387Z,101156.05
2019-02-19T21:02:50.667Z,101149.50
2019-02-19T21:05:18.928Z,101155.50
2019-02-19T21:07:47.191Z,101158.00
2019-02-19T21:10:19.523Z,101157.34
2019-02-19T21:12:47.830Z,101160.20
2019-02-19T21:15:16.092Z,101163.88
2019-02-19T21:17:44.342Z,101162.23
2019-02-19T21:20:12.892Z,101171.45
2019-02-19T21:22:41.164Z,101170.16
2019-02-19T21:25:10.371Z,101173.65
2019-02-19T21:27:38.629Z,101183.10
2019-02-19T21:30:12.302Z,101184.45
2019-02-19T21:32:40.567Z,101179.01
2019-02-19T21:35:09.477Z,101181.04
2019-02-19T21:37:37.813Z,101180.45
2019-02-19T21:40:11.063Z,101188.39
2019-02-19T21:42:39.338Z,101180.19
2019-02-19T21:45:13.621Z,101177.50
2019-02-19T21:47:41.907Z,101179.30
2019-02-19T21:50:11.397Z,101177.32
2019-02-19T21:52:39.835Z,101188.66
2019-02-19T21:55:12.092Z,101176.47
2019-02-19T21:57:40.361Z,101183.50
2019-02-19T22:00:11.006Z,101187.36
2019-02-19T22:02:39.290Z,101188.70
2019-02-19T22:05:07.722Z,101182.30
2019-02-19T22:07:35.980Z,101180.19
2019-02-19T22:10:05.896Z,101181.84
2019-02-19T22:12:34.167Z,101183.14
2019-02-19T22:15:02.425Z,101183.50
2019-02-19T22:17:30.691Z,101174.67
2019-02-19T22:20:03.142Z,101177.27
2019-02-19T22:22:29.222Z,101182.10
2019-02-19T22:24:57.470Z,101181.56
2019-02-19T22:27:25.736Z,101180.55
2019-02-19T22:29:53.989Z,101174.95
2019-02-19T22:32:22.253Z,101182.30
2019-02-19T22:34:50.534Z,101182.30
2019-02-19T22:37:18.928Z,101182.46
2019-02-19T22:39:47.441Z,101190.20
2019-02-19T22:42:15.741Z,101186.59
2019-02-19T22:44:43.991Z,101185.20
2019-02-19T22:47:12.278Z,101183.77
2019-02-19T22:49:40.570Z,101188.25
2019-02-19T22:52:12.495Z,101184.45
2019-02-19T22:54:40.513Z,101183.23
2019-02-19T22:57:08.776Z,101183.19
2019-02-19T22:59:37.050Z,101181.04
2019-02-19T23:02:07.031Z,101186.59
2019-02-19T23:04:35.312Z,101193.90
2019-02-19T23:07:03.574Z,101199.95
2019-02-19T23:09:31.854Z,101192.28
2019-02-19T23:12:03.028Z,101195.20
2019-02-19T23:14:31.295Z,101192.55
2019-02-19T23:16:59.574Z,101193.94
2019-02-19T23:19:27.845Z,101200.48
2019-02-19T23:21:56.129Z,101202.98
2019-02-19T23:24:24.370Z,101203.57
2019-02-19T23:26:52.738Z,101209.17
2019-02-19T23:29:21.000Z,101211.31
2019-02-19T23:31:49.274Z,101213.88
2019-02-19T23:34:17.558Z,101209.97
2019-02-19T23:36:47.461Z,101217.81
2019-02-19T23:39:15.751Z,101209.13
2019-02-19T23:41:44.026Z,101209.89
2019-02-19T23:44:12.320Z,101212.04
2019-02-19T23:46:40.581Z,101214.59
2019-02-19T23:49:08.891Z,101215.94
2019-02-19T23:51:37.105Z,101216.74
2019-02-19T23:54:05.379Z,101220.64
2019-02-19T23:56:33.658Z,101214.36
2019-02-19T23:59:01.926Z,101221.13
